Terminal Aerodrome Forecast
Issued by NWS

Home | Current Version | Previous Version | Text Only | Print | Product List | Glossary Off
Versions: 1 2 3 4 5 6 7 8 9 10 11 12 13 14 15 16

000
FTUS43 KBIS 231700
TAFJMS
TAF
KJMS 231740Z 2318/2418 30018G23KT P6SM BKN025 OVC035
     FM240600 33022KT P6SM OVC020
     FM241400 34020G28KT P6SM SCT020=

USA.gov is the U.S. government's official web portal to all federal, state and local government web resources and services.